sensor_id;sensor_type;location;lat;lon;timestamp;P1;durP1;ratioP1;P2;durP2;ratioP2
64502;SDS011;50971;51.940;21.258;2024-03-07T00:00:10;13.70;;;7.30;;
64502;SDS011;50971;51.940;21.258;2024-03-07T00:10:17;15.20;;;7.70;;
64502;SDS011;50971;51.940;21.258;2024-03-07T00:20:19;12.90;;;6.60;;
64502;SDS011;50971;51.940;21.258;2024-03-07T00:30:22;8.40;;;5.50;;
64502;SDS011;50971;51.940;21.258;2024-03-07T00:40:23;12.90;;;6.00;;
64502;SDS011;50971;51.940;21.258;2024-03-07T00:50:25;13.10;;;6.10;;
64502;SDS011;50971;51.940;21.258;2024-03-07T01:00:27;12.90;;;6.50;;
64502;SDS011;50971;51.940;21.258;2024-03-07T01:10:30;10.60;;;6.00;;
64502;SDS011;50971;51.940;21.258;2024-03-07T01:20:31;8.80;;;5.70;;
64502;SDS011;50971;51.940;21.258;2024-03-07T01:30:33;10.60;;;5.60;;
64502;SDS011;50971;51.940;21.258;2024-03-07T01:40:35;13.10;;;5.50;;
64502;SDS011;50971;51.940;21.258;2024-03-07T01:50:37;13.40;;;6.30;;
64502;SDS011;50971;51.940;21.258;2024-03-07T02:00:41;12.60;;;6.30;;
64502;SDS011;50971;51.940;21.258;2024-03-07T02:10:45;11.80;;;5.60;;
64502;SDS011;50971;51.940;21.258;2024-03-07T02:20:47;7.40;;;4.20;;
64502;SDS011;50971;51.940;21.258;2024-03-07T02:30:50;6.50;;;4.00;;
64502;SDS011;50971;51.940;21.258;2024-03-07T02:40:51;10.40;;;5.30;;
64502;SDS011;50971;51.940;21.258;2024-03-07T02:50:53;9.90;;;5.20;;
64502;SDS011;50971;51.940;21.258;2024-03-07T03:00:58;10.60;;;5.80;;
64502;SDS011;50971;51.940;21.258;2024-03-07T03:11:01;12.00;;;6.30;;
64502;SDS011;50971;51.940;21.258;2024-03-07T03:21:03;9.70;;;5.40;;
64502;SDS011;50971;51.940;21.258;2024-03-07T03:31:05;11.00;;;5.90;;
64502;SDS011;50971;51.940;21.258;2024-03-07T03:41:07;14.20;;;6.80;;
64502;SDS011;50971;51.940;21.258;2024-03-07T03:51:09;12.10;;;6.50;;
64502;SDS011;50971;51.940;21.258;2024-03-07T04:01:11;7.50;;;4.60;;
64502;SDS011;50971;51.940;21.258;2024-03-07T04:11:16;9.70;;;5.00;;
64502;SDS011;50971;51.940;21.258;2024-03-07T04:21:18;7.70;;;5.00;;
64502;SDS011;50971;51.940;21.258;2024-03-07T04:41:22;14.00;;;6.90;;
64502;SDS011;50971;51.940;21.258;2024-03-07T04:51:25;12.10;;;6.40;;
64502;SDS011;50971;51.940;21.258;2024-03-07T05:11:29;10.50;;;5.70;;
64502;SDS011;50971;51.940;21.258;2024-03-07T05:21:34;24.60;;;8.60;;
64502;SDS011;50971;51.940;21.258;2024-03-07T05:31:39;13.40;;;6.80;;
64502;SDS011;50971;51.940;21.258;2024-03-07T05:41:52;10.50;;;6.00;;
64502;SDS011;50971;51.940;21.258;2024-03-07T05:51:56;15.80;;;7.00;;
64502;SDS011;50971;51.940;21.258;2024-03-07T06:01:59;9.30;;;5.60;;
64502;SDS011;50971;51.940;21.258;2024-03-07T06:12:01;11.60;;;6.20;;
64502;SDS011;50971;51.940;21.258;2024-03-07T06:22:16;12.70;;;6.60;;
64502;SDS011;50971;51.940;21.258;2024-03-07T06:32:19;15.00;;;7.50;;
64502;SDS011;50971;51.940;21.258;2024-03-07T06:42:20;16.60;;;9.40;;
64502;SDS011;50971;51.940;21.258;2024-03-07T06:52:23;15.50;;;7.60;;
64502;SDS011;50971;51.940;21.258;2024-03-07T07:02:25;15.30;;;8.10;;
64502;SDS011;50971;51.940;21.258;2024-03-07T07:12:29;15.90;;;8.60;;
64502;SDS011;50971;51.940;21.258;2024-03-07T07:22:31;15.60;;;7.70;;
64502;SDS011;50971;51.940;21.258;2024-03-07T07:32:36;16.50;;;9.30;;
64502;SDS011;50971;51.940;21.258;2024-03-07T07:42:38;16.80;;;7.90;;
64502;SDS011;50971;51.940;21.258;2024-03-07T07:52:42;17.20;;;8.00;;
64502;SDS011;50971;51.940;21.258;2024-03-07T08:02:55;15.80;;;9.10;;
64502;SDS011;50971;51.940;21.258;2024-03-07T08:13:03;12.90;;;7.40;;
64502;SDS011;50971;51.940;21.258;2024-03-07T08:23:12;14.50;;;7.50;;
64502;SDS011;50971;51.940;21.258;2024-03-07T08:33:14;11.90;;;7.40;;
64502;SDS011;50971;51.940;21.258;2024-03-07T08:43:16;13.60;;;7.00;;
64502;SDS011;50971;51.940;21.258;2024-03-07T08:53:18;9.80;;;5.50;;
64502;SDS011;50971;51.940;21.258;2024-03-07T09:03:20;13.20;;;7.40;;
64502;SDS011;50971;51.940;21.258;2024-03-07T09:13:23;11.20;;;7.20;;
64502;SDS011;50971;51.940;21.258;2024-03-07T09:23:25;14.90;;;8.60;;
64502;SDS011;50971;51.940;21.258;2024-03-07T09:33:27;10.40;;;7.00;;
64502;SDS011;50971;51.940;21.258;2024-03-07T09:43:30;13.10;;;7.20;;
64502;SDS011;50971;51.940;21.258;2024-03-07T09:53:35;10.30;;;6.00;;
64502;SDS011;50971;51.940;21.258;2024-03-07T10:03:38;8.90;;;5.20;;
64502;SDS011;50971;51.940;21.258;2024-03-07T10:13:46;10.30;;;5.10;;
64502;SDS011;50971;51.940;21.258;2024-03-07T10:23:50;9.30;;;5.40;;
64502;SDS011;50971;51.940;21.258;2024-03-07T10:34:07;7.40;;;4.30;;
64502;SDS011;50971;51.940;21.258;2024-03-07T10:44:09;8.20;;;4.80;;
64502;SDS011;50971;51.940;21.258;2024-03-07T10:54:22;6.40;;;4.10;;
64502;SDS011;50971;51.940;21.258;2024-03-07T11:04:35;7.00;;;4.30;;
64502;SDS011;50971;51.940;21.258;2024-03-07T11:14:38;7.50;;;4.70;;
64502;SDS011;50971;51.940;21.258;2024-03-07T11:24:42;6.80;;;4.10;;
64502;SDS011;50971;51.940;21.258;2024-03-07T11:34:44;9.10;;;5.30;;
64502;SDS011;50971;51.940;21.258;2024-03-07T11:44:49;7.30;;;3.70;;
64502;SDS011;50971;51.940;21.258;2024-03-07T11:54:53;6.50;;;4.10;;
64502;SDS011;50971;51.940;21.258;2024-03-07T12:04:55;7.90;;;4.20;;
64502;SDS011;50971;51.940;21.258;2024-03-07T12:14:56;7.50;;;4.00;;
64502;SDS011;50971;51.940;21.258;2024-03-07T12:24:59;8.30;;;4.60;;
64502;SDS011;50971;51.940;21.258;2024-03-07T12:35:10;10.10;;;5.20;;
64502;SDS011;50971;51.940;21.258;2024-03-07T12:45:16;9.30;;;5.10;;
64502;SDS011;50971;51.940;21.258;2024-03-07T12:55:21;6.80;;;4.30;;
64502;SDS011;50971;51.940;21.258;2024-03-07T13:05:23;7.90;;;4.40;;
64502;SDS011;50971;51.940;21.258;2024-03-07T13:15:26;7.90;;;4.30;;
64502;SDS011;50971;51.940;21.258;2024-03-07T13:25:28;7.30;;;3.80;;
64502;SDS011;50971;51.940;21.258;2024-03-07T13:35:34;8.30;;;3.70;;
64502;SDS011;50971;51.940;21.258;2024-03-07T13:45:37;8.70;;;4.30;;
64502;SDS011;50971;51.940;21.258;2024-03-07T14:05:57;8.30;;;5.20;;
64502;SDS011;50971;51.940;21.258;2024-03-07T14:37:21;8.50;;;5.00;;
64502;SDS011;50971;51.940;21.258;2024-03-07T14:47:25;9.00;;;4.10;;
64502;SDS011;50971;51.940;21.258;2024-03-07T14:57:27;6.40;;;4.00;;
64502;SDS011;50971;51.940;21.258;2024-03-07T15:07:29;10.20;;;5.40;;
64502;SDS011;50971;51.940;21.258;2024-03-07T15:17:30;10.20;;;5.10;;
64502;SDS011;50971;51.940;21.258;2024-03-07T15:27:32;7.90;;;4.10;;
64502;SDS011;50971;51.940;21.258;2024-03-07T15:37:41;8.00;;;3.80;;
64502;SDS011;50971;51.940;21.258;2024-03-07T15:47:46;8.40;;;4.40;;
64502;SDS011;50971;51.940;21.258;2024-03-07T15:57:51;8.00;;;3.90;;
64502;SDS011;50971;51.940;21.258;2024-03-07T16:07:55;9.60;;;5.30;;
64502;SDS011;50971;51.940;21.258;2024-03-07T16:17:58;9.30;;;4.60;;
64502;SDS011;50971;51.940;21.258;2024-03-07T16:28:01;7.70;;;4.20;;
64502;SDS011;50971;51.940;21.258;2024-03-07T16:38:03;14.90;;;6.60;;
64502;SDS011;50971;51.940;21.258;2024-03-07T16:48:05;11.40;;;5.40;;
64502;SDS011;50971;51.940;21.258;2024-03-07T16:58:14;12.10;;;5.60;;
64502;SDS011;50971;51.940;21.258;2024-03-07T17:08:17;12.50;;;7.20;;
64502;SDS011;50971;51.940;21.258;2024-03-07T17:18:22;20.10;;;7.40;;
64502;SDS011;50971;51.940;21.258;2024-03-07T17:28:28;22.30;;;8.60;;
64502;SDS011;50971;51.940;21.258;2024-03-07T17:38:30;23.00;;;7.50;;
64502;SDS011;50971;51.940;21.258;2024-03-07T17:48:34;24.70;;;9.20;;
64502;SDS011;50971;51.940;21.258;2024-03-07T17:58:38;18.90;;;10.90;;
64502;SDS011;50971;51.940;21.258;2024-03-07T18:08:40;12.30;;;6.70;;
64502;SDS011;50971;51.940;21.258;2024-03-07T18:18:52;9.00;;;5.10;;
64502;SDS011;50971;51.940;21.258;2024-03-07T18:28:56;7.50;;;3.70;;
64502;SDS011;50971;51.940;21.258;2024-03-07T18:38:57;4.00;;;2.80;;
64502;SDS011;50971;51.940;21.258;2024-03-07T18:48:59;4.10;;;2.80;;
64502;SDS011;50971;51.940;21.258;2024-03-07T18:59:01;9.80;;;4.30;;
64502;SDS011;50971;51.940;21.258;2024-03-07T19:09:09;16.80;;;7.10;;
64502;SDS011;50971;51.940;21.258;2024-03-07T19:19:14;23.20;;;9.20;;
64502;SDS011;50971;51.940;21.258;2024-03-07T19:29:18;21.10;;;8.10;;
64502;SDS011;50971;51.940;21.258;2024-03-07T19:39:22;17.00;;;7.10;;
64502;SDS011;50971;51.940;21.258;2024-03-07T19:49:25;13.80;;;7.40;;
64502;SDS011;50971;51.940;21.258;2024-03-07T19:59:29;8.40;;;5.00;;
64502;SDS011;50971;51.940;21.258;2024-03-07T20:09:31;9.20;;;5.80;;
64502;SDS011;50971;51.940;21.258;2024-03-07T20:29:35;7.20;;;3.60;;
64502;SDS011;50971;51.940;21.258;2024-03-07T20:49:45;5.00;;;3.70;;
64502;SDS011;50971;51.940;21.258;2024-03-07T21:09:49;8.60;;;4.70;;
64502;SDS011;50971;51.940;21.258;2024-03-07T21:19:51;10.50;;;6.50;;
64502;SDS011;50971;51.940;21.258;2024-03-07T21:29:53;25.10;;;10.10;;
64502;SDS011;50971;51.940;21.258;2024-03-07T21:39:55;32.10;;;13.20;;
64502;SDS011;50971;51.940;21.258;2024-03-07T21:49:57;42.80;;;16.00;;
64502;SDS011;50971;51.940;21.258;2024-03-07T22:00:00;38.10;;;15.90;;
64502;SDS011;50971;51.940;21.258;2024-03-07T22:10:08;35.50;;;14.60;;
64502;SDS011;50971;51.940;21.258;2024-03-07T22:20:15;39.70;;;15.30;;
64502;SDS011;50971;51.940;21.258;2024-03-07T22:30:20;17.70;;;9.90;;
64502;SDS011;50971;51.940;21.258;2024-03-07T22:40:24;18.30;;;10.10;;
64502;SDS011;50971;51.940;21.258;2024-03-07T22:50:29;13.80;;;8.20;;
64502;SDS011;50971;51.940;21.258;2024-03-07T23:00:32;12.60;;;7.80;;
64502;SDS011;50971;51.940;21.258;2024-03-07T23:10:34;12.90;;;7.30;;
64502;SDS011;50971;51.940;21.258;2024-03-07T23:20:36;17.60;;;9.00;;
64502;SDS011;50971;51.940;21.258;2024-03-07T23:30:39;12.60;;;8.10;;
